sensor_id;sensor_type;location;lat;lon;timestamp;P1;durP1;ratioP1;P2;durP2;ratioP2
75894;SDS011;64573;50.328;15.014;2023-04-24T00:00:03;17.90;;;11.23;;
75894;SDS011;64573;50.328;15.014;2023-04-24T00:02:37;18.30;;;11.18;;
75894;SDS011;64573;50.328;15.014;2023-04-24T00:05:06;17.70;;;11.57;;
75894;SDS011;64573;50.328;15.014;2023-04-24T00:07:33;19.65;;;12.07;;
75894;SDS011;64573;50.328;15.014;2023-04-24T00:09:59;17.45;;;10.70;;
75894;SDS011;64573;50.328;15.014;2023-04-24T00:12:25;16.13;;;10.38;;
75894;SDS011;64573;50.328;15.014;2023-04-24T00:14:51;17.13;;;10.80;;
75894;SDS011;64573;50.328;15.014;2023-04-24T00:17:16;17.65;;;10.75;;
75894;SDS011;64573;50.328;15.014;2023-04-24T00:19:45;15.82;;;10.70;;
75894;SDS011;64573;50.328;15.014;2023-04-24T00:22:10;16.58;;;10.13;;
75894;SDS011;64573;50.328;15.014;2023-04-24T00:24:38;24.42;;;10.90;;
75894;SDS011;64573;50.328;15.014;2023-04-24T00:27:03;18.85;;;11.93;;
75894;SDS011;64573;50.328;15.014;2023-04-24T00:29:29;22.17;;;12.50;;
75894;SDS011;64573;50.328;15.014;2023-04-24T00:31:54;19.55;;;12.75;;
75894;SDS011;64573;50.328;15.014;2023-04-24T00:34:19;21.35;;;12.07;;
75894;SDS011;64573;50.328;15.014;2023-04-24T00:36:45;20.42;;;12.23;;
75894;SDS011;64573;50.328;15.014;2023-04-24T00:39:11;21.52;;;12.98;;
75894;SDS011;64573;50.328;15.014;2023-04-24T00:41:36;19.35;;;12.73;;
75894;SDS011;64573;50.328;15.014;2023-04-24T00:44:02;23.25;;;14.60;;
75894;SDS011;64573;50.328;15.014;2023-04-24T00:46:27;26.48;;;14.93;;
75894;SDS011;64573;50.328;15.014;2023-04-24T00:48:53;26.42;;;15.32;;
75894;SDS011;64573;50.328;15.014;2023-04-24T00:51:20;23.20;;;14.18;;
75894;SDS011;64573;50.328;15.014;2023-04-24T00:53:45;25.30;;;13.43;;
75894;SDS011;64573;50.328;15.014;2023-04-24T00:56:12;24.08;;;14.88;;
75894;SDS011;64573;50.328;15.014;2023-04-24T00:58:38;21.50;;;12.52;;
75894;SDS011;64573;50.328;15.014;2023-04-24T01:01:04;20.65;;;12.60;;
75894;SDS011;64573;50.328;15.014;2023-04-24T01:03:32;21.55;;;12.15;;
75894;SDS011;64573;50.328;15.014;2023-04-24T01:05:58;20.30;;;11.65;;
75894;SDS011;64573;50.328;15.014;2023-04-24T01:08:24;19.83;;;10.70;;
75894;SDS011;64573;50.328;15.014;2023-04-24T01:10:51;14.77;;;10.40;;
75894;SDS011;64573;50.328;15.014;2023-04-24T01:13:20;17.90;;;9.82;;
75894;SDS011;64573;50.328;15.014;2023-04-24T01:15:46;15.05;;;9.02;;
75894;SDS011;64573;50.328;15.014;2023-04-24T01:18:12;17.95;;;10.65;;
75894;SDS011;64573;50.328;15.014;2023-04-24T01:20:41;15.50;;;10.30;;
75894;SDS011;64573;50.328;15.014;2023-04-24T01:23:09;16.45;;;10.80;;
75894;SDS011;64573;50.328;15.014;2023-04-24T01:25:35;17.05;;;11.27;;
75894;SDS011;64573;50.328;15.014;2023-04-24T01:28:02;19.58;;;11.15;;
75894;SDS011;64573;50.328;15.014;2023-04-24T01:30:27;17.45;;;11.07;;
75894;SDS011;64573;50.328;15.014;2023-04-24T01:32:53;16.55;;;10.98;;
75894;SDS011;64573;50.328;15.014;2023-04-24T01:35:20;17.55;;;11.30;;
75894;SDS011;64573;50.328;15.014;2023-04-24T01:37:45;21.40;;;12.23;;
75894;SDS011;64573;50.328;15.014;2023-04-24T01:40:11;19.63;;;12.65;;
75894;SDS011;64573;50.328;15.014;2023-04-24T01:42:36;18.27;;;12.38;;
75894;SDS011;64573;50.328;15.014;2023-04-24T01:45:03;22.02;;;12.25;;
75894;SDS011;64573;50.328;15.014;2023-04-24T01:47:30;24.50;;;13.82;;
75894;SDS011;64573;50.328;15.014;2023-04-24T01:49:56;22.40;;;12.40;;
75894;SDS011;64573;50.328;15.014;2023-04-24T01:52:22;21.30;;;13.30;;
75894;SDS011;64573;50.328;15.014;2023-04-24T01:54:48;21.17;;;13.30;;
75894;SDS011;64573;50.328;15.014;2023-04-24T01:57:14;23.08;;;13.40;;
75894;SDS011;64573;50.328;15.014;2023-04-24T01:59:39;19.92;;;13.30;;
75894;SDS011;64573;50.328;15.014;2023-04-24T02:02:05;22.80;;;13.35;;
75894;SDS011;64573;50.328;15.014;2023-04-24T02:04:30;22.23;;;14.07;;
75894;SDS011;64573;50.328;15.014;2023-04-24T02:06:56;24.52;;;14.15;;
75894;SDS011;64573;50.328;15.014;2023-04-24T02:09:21;22.10;;;13.68;;
75894;SDS011;64573;50.328;15.014;2023-04-24T02:11:46;21.10;;;13.35;;
75894;SDS011;64573;50.328;15.014;2023-04-24T02:14:12;22.98;;;13.57;;
75894;SDS011;64573;50.328;15.014;2023-04-24T02:16:38;21.52;;;12.82;;
75894;SDS011;64573;50.328;15.014;2023-04-24T02:19:04;18.73;;;12.07;;
75894;SDS011;64573;50.328;15.014;2023-04-24T02:21:29;19.50;;;12.35;;
75894;SDS011;64573;50.328;15.014;2023-04-24T02:23:56;19.38;;;13.23;;
75894;SDS011;64573;50.328;15.014;2023-04-24T02:26:21;22.52;;;13.68;;
75894;SDS011;64573;50.328;15.014;2023-04-24T02:28:47;20.58;;;13.52;;
75894;SDS011;64573;50.328;15.014;2023-04-24T02:31:12;21.67;;;12.52;;
75894;SDS011;64573;50.328;15.014;2023-04-24T02:33:38;18.17;;;12.05;;
75894;SDS011;64573;50.328;15.014;2023-04-24T02:36:03;18.10;;;11.88;;
75894;SDS011;64573;50.328;15.014;2023-04-24T02:38:29;22.75;;;13.35;;
75894;SDS011;64573;50.328;15.014;2023-04-24T02:40:54;22.52;;;12.48;;
75894;SDS011;64573;50.328;15.014;2023-04-24T02:43:20;24.63;;;14.57;;
75894;SDS011;64573;50.328;15.014;2023-04-24T02:45:45;27.25;;;14.98;;
75894;SDS011;64573;50.328;15.014;2023-04-24T02:48:11;28.27;;;15.90;;
75894;SDS011;64573;50.328;15.014;2023-04-24T02:50:36;30.52;;;15.95;;
75894;SDS011;64573;50.328;15.014;2023-04-24T02:53:01;31.00;;;16.25;;
75894;SDS011;64573;50.328;15.014;2023-04-24T02:55:27;33.47;;;16.17;;
75894;SDS011;64573;50.328;15.014;2023-04-24T02:57:52;26.80;;;15.73;;
75894;SDS011;64573;50.328;15.014;2023-04-24T03:00:18;23.40;;;14.27;;
75894;SDS011;64573;50.328;15.014;2023-04-24T03:02:43;27.20;;;14.43;;
75894;SDS011;64573;50.328;15.014;2023-04-24T03:05:09;24.05;;;13.02;;
75894;SDS011;64573;50.328;15.014;2023-04-24T03:07:36;32.30;;;17.15;;
75894;SDS011;64573;50.328;15.014;2023-04-24T03:10:02;23.95;;;12.88;;
75894;SDS011;64573;50.328;15.014;2023-04-24T03:12:27;27.55;;;13.68;;
75894;SDS011;64573;50.328;15.014;2023-04-24T03:14:53;24.33;;;14.68;;
75894;SDS011;64573;50.328;15.014;2023-04-24T03:17:18;26.35;;;13.75;;
75894;SDS011;64573;50.328;15.014;2023-04-24T03:19:43;28.00;;;15.15;;
75894;SDS011;64573;50.328;15.014;2023-04-24T03:22:09;28.90;;;16.25;;
75894;SDS011;64573;50.328;15.014;2023-04-24T03:24:34;25.63;;;14.52;;
75894;SDS011;64573;50.328;15.014;2023-04-24T03:27:00;29.23;;;15.18;;
75894;SDS011;64573;50.328;15.014;2023-04-24T03:29:25;23.83;;;13.63;;
75894;SDS011;64573;50.328;15.014;2023-04-24T03:31:50;27.95;;;14.23;;
75894;SDS011;64573;50.328;15.014;2023-04-24T03:34:16;27.30;;;13.70;;
75894;SDS011;64573;50.328;15.014;2023-04-24T03:36:41;24.58;;;13.60;;
75894;SDS011;64573;50.328;15.014;2023-04-24T03:39:07;24.70;;;12.70;;
75894;SDS011;64573;50.328;15.014;2023-04-24T03:41:32;24.88;;;12.27;;
75894;SDS011;64573;50.328;15.014;2023-04-24T03:43:58;20.52;;;12.27;;
75894;SDS011;64573;50.328;15.014;2023-04-24T03:46:23;19.02;;;11.30;;
75894;SDS011;64573;50.328;15.014;2023-04-24T03:48:48;19.40;;;11.85;;
75894;SDS011;64573;50.328;15.014;2023-04-24T03:51:14;26.48;;;12.52;;
75894;SDS011;64573;50.328;15.014;2023-04-24T03:53:39;21.30;;;11.13;;
75894;SDS011;64573;50.328;15.014;2023-04-24T03:56:05;20.52;;;11.02;;
75894;SDS011;64573;50.328;15.014;2023-04-24T03:58:30;25.45;;;11.88;;
75894;SDS011;64573;50.328;15.014;2023-04-24T04:00:55;22.17;;;11.55;;
75894;SDS011;64573;50.328;15.014;2023-04-24T04:03:22;21.27;;;11.00;;
75894;SDS011;64573;50.328;15.014;2023-04-24T04:05:48;22.27;;;9.45;;
75894;SDS011;64573;50.328;15.014;2023-04-24T04:08:13;17.70;;;10.02;;
75894;SDS011;64573;50.328;15.014;2023-04-24T04:10:39;19.48;;;9.13;;
75894;SDS011;64573;50.328;15.014;2023-04-24T04:13:04;29.60;;;17.48;;
75894;SDS011;64573;50.328;15.014;2023-04-24T04:15:31;18.40;;;9.85;;
75894;SDS011;64573;50.328;15.014;2023-04-24T04:17:56;18.33;;;11.02;;
75894;SDS011;64573;50.328;15.014;2023-04-24T04:20:22;16.88;;;10.57;;
75894;SDS011;64573;50.328;15.014;2023-04-24T04:22:47;19.10;;;9.10;;
75894;SDS011;64573;50.328;15.014;2023-04-24T04:25:12;15.00;;;8.85;;
75894;SDS011;64573;50.328;15.014;2023-04-24T04:27:38;12.10;;;8.45;;
75894;SDS011;64573;50.328;15.014;2023-04-24T04:30:04;12.88;;;8.30;;
75894;SDS011;64573;50.328;15.014;2023-04-24T04:32:33;12.07;;;7.63;;
75894;SDS011;64573;50.328;15.014;2023-04-24T04:35:00;12.75;;;8.13;;
75894;SDS011;64573;50.328;15.014;2023-04-24T04:37:29;14.07;;;8.07;;
75894;SDS011;64573;50.328;15.014;2023-04-24T04:39:58;14.77;;;10.38;;
75894;SDS011;64573;50.328;15.014;2023-04-24T04:42:24;12.65;;;7.45;;
75894;SDS011;64573;50.328;15.014;2023-04-24T04:44:50;11.85;;;7.03;;
75894;SDS011;64573;50.328;15.014;2023-04-24T04:47:16;9.75;;;6.82;;
75894;SDS011;64573;50.328;15.014;2023-04-24T04:49:42;10.35;;;6.45;;
75894;SDS011;64573;50.328;15.014;2023-04-24T04:52:08;9.57;;;5.88;;
75894;SDS011;64573;50.328;15.014;2023-04-24T04:54:33;10.32;;;6.55;;
75894;SDS011;64573;50.328;15.014;2023-04-24T04:56:58;7.63;;;5.30;;
75894;SDS011;64573;50.328;15.014;2023-04-24T04:59:25;8.10;;;5.57;;
75894;SDS011;64573;50.328;15.014;2023-04-24T05:01:50;7.18;;;5.72;;
75894;SDS011;64573;50.328;15.014;2023-04-24T05:04:16;6.70;;;5.20;;
75894;SDS011;64573;50.328;15.014;2023-04-24T05:06:41;8.27;;;5.72;;
75894;SDS011;64573;50.328;15.014;2023-04-24T05:09:07;10.20;;;5.90;;
75894;SDS011;64573;50.328;15.014;2023-04-24T05:11:32;10.65;;;5.55;;
75894;SDS011;64573;50.328;15.014;2023-04-24T05:13:57;8.27;;;5.72;;
75894;SDS011;64573;50.328;15.014;2023-04-24T05:16:23;7.57;;;4.95;;
75894;SDS011;64573;50.328;15.014;2023-04-24T05:18:48;8.90;;;5.50;;
75894;SDS011;64573;50.328;15.014;2023-04-24T05:21:13;8.80;;;5.65;;
75894;SDS011;64573;50.328;15.014;2023-04-24T05:23:39;8.98;;;6.60;;
75894;SDS011;64573;50.328;15.014;2023-04-24T05:26:05;13.90;;;6.80;;
75894;SDS011;64573;50.328;15.014;2023-04-24T05:28:30;8.65;;;5.47;;
75894;SDS011;64573;50.328;15.014;2023-04-24T05:30:56;7.75;;;5.28;;
75894;SDS011;64573;50.328;15.014;2023-04-24T05:33:21;8.52;;;4.70;;
75894;SDS011;64573;50.328;15.014;2023-04-24T05:35:47;7.95;;;4.70;;
75894;SDS011;64573;50.328;15.014;2023-04-24T05:38:13;8.23;;;4.72;;
75894;SDS011;64573;50.328;15.014;2023-04-24T05:40:38;7.63;;;5.22;;
75894;SDS011;64573;50.328;15.014;2023-04-24T05:43:04;11.18;;;5.15;;
75894;SDS011;64573;50.328;15.014;2023-04-24T05:45:30;9.18;;;5.53;;
75894;SDS011;64573;50.328;15.014;2023-04-24T05:47:55;7.43;;;5.32;;
75894;SDS011;64573;50.328;15.014;2023-04-24T05:50:21;10.75;;;5.80;;
75894;SDS011;64573;50.328;15.014;2023-04-24T05:52:46;8.88;;;5.85;;
75894;SDS011;64573;50.328;15.014;2023-04-24T05:55:11;8.40;;;5.32;;
75894;SDS011;64573;50.328;15.014;2023-04-24T05:57:38;7.57;;;5.32;;
75894;SDS011;64573;50.328;15.014;2023-04-24T06:00:04;8.65;;;4.85;;
75894;SDS011;64573;50.328;15.014;2023-04-24T06:02:30;6.78;;;4.55;;
75894;SDS011;64573;50.328;15.014;2023-04-24T06:04:57;7.80;;;4.30;;
75894;SDS011;64573;50.328;15.014;2023-04-24T06:07:24;12.75;;;4.70;;
75894;SDS011;64573;50.328;15.014;2023-04-24T06:09:51;8.77;;;4.95;;
75894;SDS011;64573;50.328;15.014;2023-04-24T06:12:17;8.77;;;5.07;;
75894;SDS011;64573;50.328;15.014;2023-04-24T06:14:42;9.27;;;5.82;;
75894;SDS011;64573;50.328;15.014;2023-04-24T06:17:08;12.30;;;5.68;;
75894;SDS011;64573;50.328;15.014;2023-04-24T06:19:33;9.60;;;5.38;;
75894;SDS011;64573;50.328;15.014;2023-04-24T06:21:58;8.68;;;5.13;;
75894;SDS011;64573;50.328;15.014;2023-04-24T06:24:27;7.60;;;5.45;;
75894;SDS011;64573;50.328;15.014;2023-04-24T06:26:52;9.52;;;5.63;;
75894;SDS011;64573;50.328;15.014;2023-04-24T06:29:18;7.35;;;5.30;;
75894;SDS011;64573;50.328;15.014;2023-04-24T06:31:43;9.45;;;4.90;;
75894;SDS011;64573;50.328;15.014;2023-04-24T06:34:08;7.43;;;4.80;;
75894;SDS011;64573;50.328;15.014;2023-04-24T06:36:34;9.80;;;5.30;;
75894;SDS011;64573;50.328;15.014;2023-04-24T06:39:00;7.38;;;4.47;;
75894;SDS011;64573;50.328;15.014;2023-04-24T06:41:26;7.10;;;4.57;;
75894;SDS011;64573;50.328;15.014;2023-04-24T06:43:51;6.20;;;3.90;;
75894;SDS011;64573;50.328;15.014;2023-04-24T06:46:17;5.90;;;3.90;;
75894;SDS011;64573;50.328;15.014;2023-04-24T06:48:43;6.85;;;4.05;;
75894;SDS011;64573;50.328;15.014;2023-04-24T06:51:08;6.85;;;2.70;;
75894;SDS011;64573;50.328;15.014;2023-04-24T06:53:34;4.07;;;2.75;;
75894;SDS011;64573;50.328;15.014;2023-04-24T06:56:00;3.40;;;2.47;;
75894;SDS011;64573;50.328;15.014;2023-04-24T06:58:25;3.67;;;2.70;;
75894;SDS011;64573;50.328;15.014;2023-04-24T07:00:50;5.00;;;2.92;;
75894;SDS011;64573;50.328;15.014;2023-04-24T07:03:16;4.40;;;3.10;;
75894;SDS011;64573;50.328;15.014;2023-04-24T07:05:41;4.47;;;3.15;;
75894;SDS011;64573;50.328;15.014;2023-04-24T07:08:07;3.80;;;3.20;;
75894;SDS011;64573;50.328;15.014;2023-04-24T07:10:33;5.13;;;3.17;;
75894;SDS011;64573;50.328;15.014;2023-04-24T07:13:00;4.85;;;3.33;;
75894;SDS011;64573;50.328;15.014;2023-04-24T07:15:26;5.53;;;3.58;;
75894;SDS011;64573;50.328;15.014;2023-04-24T07:17:51;6.07;;;4.32;;
75894;SDS011;64573;50.328;15.014;2023-04-24T07:20:17;9.10;;;4.43;;
75894;SDS011;64573;50.328;15.014;2023-04-24T07:22:42;7.22;;;4.75;;
75894;SDS011;64573;50.328;15.014;2023-04-24T07:25:08;7.40;;;4.55;;
75894;SDS011;64573;50.328;15.014;2023-04-24T07:27:34;7.93;;;4.82;;
75894;SDS011;64573;50.328;15.014;2023-04-24T07:30:01;7.38;;;4.90;;
75894;SDS011;64573;50.328;15.014;2023-04-24T07:32:27;7.60;;;4.82;;
75894;SDS011;64573;50.328;15.014;2023-04-24T07:34:52;7.55;;;4.60;;
75894;SDS011;64573;50.328;15.014;2023-04-24T07:37:17;8.85;;;4.72;;
75894;SDS011;64573;50.328;15.014;2023-04-24T07:39:43;8.48;;;4.20;;
75894;SDS011;64573;50.328;15.014;2023-04-24T07:42:09;5.80;;;4.35;;
75894;SDS011;64573;50.328;15.014;2023-04-24T07:44:34;6.90;;;4.50;;
75894;SDS011;64573;50.328;15.014;2023-04-24T07:47:00;5.82;;;4.15;;
75894;SDS011;64573;50.328;15.014;2023-04-24T07:49:26;9.27;;;4.15;;
75894;SDS011;64573;50.328;15.014;2023-04-24T07:51:52;5.32;;;3.40;;
75894;SDS011;64573;50.328;15.014;2023-04-24T07:54:18;6.78;;;3.67;;
75894;SDS011;64573;50.328;15.014;2023-04-24T07:56:43;5.38;;;3.65;;
75894;SDS011;64573;50.328;15.014;2023-04-24T07:59:09;8.80;;;3.50;;
75894;SDS011;64573;50.328;15.014;2023-04-24T08:01:35;5.72;;;3.75;;
75894;SDS011;64573;50.328;15.014;2023-04-24T08:04:01;6.78;;;3.47;;
75894;SDS011;64573;50.328;15.014;2023-04-24T08:06:27;6.10;;;3.17;;
75894;SDS011;64573;50.328;15.014;2023-04-24T08:08:55;7.03;;;2.92;;
75894;SDS011;64573;50.328;15.014;2023-04-24T08:11:21;7.22;;;3.25;;
75894;SDS011;64573;50.328;15.014;2023-04-24T08:13:47;3.45;;;2.70;;
75894;SDS011;64573;50.328;15.014;2023-04-24T08:16:12;6.82;;;3.60;;
75894;SDS011;64573;50.328;15.014;2023-04-24T08:18:38;5.07;;;3.53;;
75894;SDS011;64573;50.328;15.014;2023-04-24T08:21:03;3.88;;;3.05;;
75894;SDS011;64573;50.328;15.014;2023-04-24T08:23:28;4.43;;;3.03;;
75894;SDS011;64573;50.328;15.014;2023-04-24T08:25:54;4.35;;;3.05;;
75894;SDS011;64573;50.328;15.014;2023-04-24T08:28:20;6.85;;;3.38;;
75894;SDS011;64573;50.328;15.014;2023-04-24T08:30:45;3.83;;;2.90;;
75894;SDS011;64573;50.328;15.014;2023-04-24T08:33:12;6.35;;;3.42;;
75894;SDS011;64573;50.328;15.014;2023-04-24T08:35:37;6.13;;;3.25;;
75894;SDS011;64573;50.328;15.014;2023-04-24T08:38:03;3.88;;;3.00;;
75894;SDS011;64573;50.328;15.014;2023-04-24T08:40:29;5.43;;;3.53;;
75894;SDS011;64573;50.328;15.014;2023-04-24T08:42:58;8.65;;;4.07;;
75894;SDS011;64573;50.328;15.014;2023-04-24T08:45:24;5.88;;;3.67;;
75894;SDS011;64573;50.328;15.014;2023-04-24T08:47:51;4.28;;;3.53;;
75894;SDS011;64573;50.328;15.014;2023-04-24T08:50:18;4.88;;;3.42;;
75894;SDS011;64573;50.328;15.014;2023-04-24T08:52:44;6.00;;;3.20;;
75894;SDS011;64573;50.328;15.014;2023-04-24T08:55:09;5.78;;;3.65;;
75894;SDS011;64573;50.328;15.014;2023-04-24T08:57:35;6.35;;;3.78;;
75894;SDS011;64573;50.328;15.014;2023-04-24T09:00:03;5.43;;;3.17;;
75894;SDS011;64573;50.328;15.014;2023-04-24T09:02:29;6.25;;;3.30;;
75894;SDS011;64573;50.328;15.014;2023-04-24T09:04:57;4.38;;;2.85;;
75894;SDS011;64573;50.328;15.014;2023-04-24T09:07:24;3.10;;;2.60;;
75894;SDS011;64573;50.328;15.014;2023-04-24T09:09:51;5.38;;;3.55;;
75894;SDS011;64573;50.328;15.014;2023-04-24T09:12:17;5.00;;;3.28;;
75894;SDS011;64573;50.328;15.014;2023-04-24T09:14:42;5.57;;;3.60;;
75894;SDS011;64573;50.328;15.014;2023-04-24T09:17:10;5.90;;;2.78;;
75894;SDS011;64573;50.328;15.014;2023-04-24T09:19:36;4.72;;;2.75;;
75894;SDS011;64573;50.328;15.014;2023-04-24T09:22:04;4.30;;;2.75;;
75894;SDS011;64573;50.328;15.014;2023-04-24T09:24:31;7.55;;;3.38;;
75894;SDS011;64573;50.328;15.014;2023-04-24T09:26:57;3.45;;;2.83;;
75894;SDS011;64573;50.328;15.014;2023-04-24T09:29:29;5.90;;;2.92;;
75894;SDS011;64573;50.328;15.014;2023-04-24T09:31:54;6.70;;;2.95;;
75894;SDS011;64573;50.328;15.014;2023-04-24T09:34:24;4.15;;;3.20;;
75894;SDS011;64573;50.328;15.014;2023-04-24T09:36:53;5.40;;;3.47;;
75894;SDS011;64573;50.328;15.014;2023-04-24T09:39:18;3.47;;;2.55;;
75894;SDS011;64573;50.328;15.014;2023-04-24T09:41:50;4.55;;;2.88;;
75894;SDS011;64573;50.328;15.014;2023-04-24T09:44:22;4.57;;;3.08;;
75894;SDS011;64573;50.328;15.014;2023-04-24T09:46:56;4.20;;;2.45;;
75894;SDS011;64573;50.328;15.014;2023-04-24T09:51:49;2.05;;;1.60;;
75894;SDS011;64573;50.328;15.014;2023-04-24T09:54:16;2.60;;;1.85;;
75894;SDS011;64573;50.328;15.014;2023-04-24T09:56:44;3.05;;;1.83;;
75894;SDS011;64573;50.328;15.014;2023-04-24T09:59:10;3.28;;;1.80;;
75894;SDS011;64573;50.328;15.014;2023-04-24T10:01:36;3.05;;;1.80;;
75894;SDS011;64573;50.328;15.014;2023-04-24T10:04:03;2.90;;;1.50;;
75894;SDS011;64573;50.328;15.014;2023-04-24T10:06:35;2.08;;;1.60;;
75894;SDS011;64573;50.328;15.014;2023-04-24T10:09:01;1.50;;;1.25;;
75894;SDS011;64573;50.328;15.014;2023-04-24T10:11:28;3.75;;;1.50;;
75894;SDS011;64573;50.328;15.014;2023-04-24T10:13:55;3.15;;;1.25;;
75894;SDS011;64573;50.328;15.014;2023-04-24T10:16:22;2.83;;;1.40;;
75894;SDS011;64573;50.328;15.014;2023-04-24T10:18:48;2.55;;;1.33;;
75894;SDS011;64573;50.328;15.014;2023-04-24T10:21:14;3.15;;;1.50;;
75894;SDS011;64573;50.328;15.014;2023-04-24T10:23:40;2.42;;;1.50;;
75894;SDS011;64573;50.328;15.014;2023-04-24T10:26:06;2.58;;;1.38;;
75894;SDS011;64573;50.328;15.014;2023-04-24T10:28:34;2.97;;;1.50;;
75894;SDS011;64573;50.328;15.014;2023-04-24T10:31:01;1.48;;;1.17;;
75894;SDS011;64573;50.328;15.014;2023-04-24T10:33:27;1.95;;;1.48;;
75894;SDS011;64573;50.328;15.014;2023-04-24T10:35:54;3.17;;;1.42;;
75894;SDS011;64573;50.328;15.014;2023-04-24T10:38:24;2.25;;;1.15;;
75894;SDS011;64573;50.328;15.014;2023-04-24T10:40:54;1.10;;;0.75;;
75894;SDS011;64573;50.328;15.014;2023-04-24T10:43:26;2.58;;;0.90;;
75894;SDS011;64573;50.328;15.014;2023-04-24T10:46:04;1.90;;;1.10;;
75894;SDS011;64573;50.328;15.014;2023-04-24T10:48:31;2.08;;;1.20;;
75894;SDS011;64573;50.328;15.014;2023-04-24T10:50:57;2.08;;;1.38;;
75894;SDS011;64573;50.328;15.014;2023-04-24T10:53:24;3.75;;;1.38;;
75894;SDS011;64573;50.328;15.014;2023-04-24T10:58:37;2.08;;;0.88;;
75894;SDS011;64573;50.328;15.014;2023-04-24T11:01:05;2.30;;;1.30;;
75894;SDS011;64573;50.328;15.014;2023-04-24T11:03:32;1.25;;;0.80;;
75894;SDS011;64573;50.328;15.014;2023-04-24T11:06:06;1.48;;;0.93;;
75894;SDS011;64573;50.328;15.014;2023-04-24T11:08:42;2.53;;;0.93;;
75894;SDS011;64573;50.328;15.014;2023-04-24T11:11:15;1.52;;;0.80;;
75894;SDS011;64573;50.328;15.014;2023-04-24T11:19:00;1.38;;;0.88;;
75894;SDS011;64573;50.328;15.014;2023-04-24T11:21:31;1.80;;;1.00;;
75894;SDS011;64573;50.328;15.014;2023-04-24T11:32:17;1.23;;;0.80;;
75894;SDS011;64573;50.328;15.014;2023-04-24T11:34:47;1.20;;;1.00;;
75894;SDS011;64573;50.328;15.014;2023-04-24T11:37:21;1.05;;;0.95;;
75894;SDS011;64573;50.328;15.014;2023-04-24T11:39:49;1.65;;;1.20;;
75894;SDS011;64573;50.328;15.014;2023-04-24T11:42:16;2.78;;;1.15;;
75894;SDS011;64573;50.328;15.014;2023-04-24T11:44:42;2.03;;;1.40;;
75894;SDS011;64573;50.328;15.014;2023-04-24T11:47:08;2.65;;;1.30;;
75894;SDS011;64573;50.328;15.014;2023-04-24T11:49:33;2.63;;;0.95;;
75894;SDS011;64573;50.328;15.014;2023-04-24T11:51:59;3.00;;;1.38;;
75894;SDS011;64573;50.328;15.014;2023-04-24T11:54:26;2.33;;;1.27;;
75894;SDS011;64573;50.328;15.014;2023-04-24T11:56:51;2.63;;;1.25;;
75894;SDS011;64573;50.328;15.014;2023-04-24T11:59:17;2.25;;;1.35;;
75894;SDS011;64573;50.328;15.014;2023-04-24T12:01:45;3.72;;;1.20;;
75894;SDS011;64573;50.328;15.014;2023-04-24T12:04:11;3.25;;;1.00;;
75894;SDS011;64573;50.328;15.014;2023-04-24T12:06:37;1.10;;;0.80;;
75894;SDS011;64573;50.328;15.014;2023-04-24T12:09:02;3.22;;;0.90;;
75894;SDS011;64573;50.328;15.014;2023-04-24T12:11:28;1.92;;;1.23;;
75894;SDS011;64573;50.328;15.014;2023-04-24T12:13:53;2.17;;;1.15;;
75894;SDS011;64573;50.328;15.014;2023-04-24T12:16:19;3.35;;;1.10;;
75894;SDS011;64573;50.328;15.014;2023-04-24T12:18:45;1.40;;;1.10;;
75894;SDS011;64573;50.328;15.014;2023-04-24T12:23:46;2.42;;;1.35;;
75894;SDS011;64573;50.328;15.014;2023-04-24T12:26:18;3.42;;;1.30;;
75894;SDS011;64573;50.328;15.014;2023-04-24T12:28:46;2.30;;;1.50;;
75894;SDS011;64573;50.328;15.014;2023-04-24T12:31:14;2.58;;;1.38;;
75894;SDS011;64573;50.328;15.014;2023-04-24T12:33:40;2.63;;;1.55;;
75894;SDS011;64573;50.328;15.014;2023-04-24T12:36:06;4.15;;;1.70;;
75894;SDS011;64573;50.328;15.014;2023-04-24T12:38:31;1.90;;;1.40;;
75894;SDS011;64573;50.328;15.014;2023-04-24T12:41:09;2.90;;;1.70;;
75894;SDS011;64573;50.328;15.014;2023-04-24T12:43:36;2.15;;;1.48;;
75894;SDS011;64573;50.328;15.014;2023-04-24T12:46:02;3.10;;;1.80;;
75894;SDS011;64573;50.328;15.014;2023-04-24T12:48:28;5.00;;;1.92;;
75894;SDS011;64573;50.328;15.014;2023-04-24T12:50:54;3.80;;;1.90;;
75894;SDS011;64573;50.328;15.014;2023-04-24T12:53:21;1.92;;;1.52;;
75894;SDS011;64573;50.328;15.014;2023-04-24T12:55:47;3.60;;;1.58;;
75894;SDS011;64573;50.328;15.014;2023-04-24T12:58:17;2.17;;;1.60;;
75894;SDS011;64573;50.328;15.014;2023-04-24T13:00:44;2.70;;;1.67;;
75894;SDS011;64573;50.328;15.014;2023-04-24T13:03:10;6.18;;;1.90;;
75894;SDS011;64573;50.328;15.014;2023-04-24T13:05:36;8.65;;;2.45;;
75894;SDS011;64573;50.328;15.014;2023-04-24T13:08:02;3.33;;;2.00;;
75894;SDS011;64573;50.328;15.014;2023-04-24T13:10:27;3.53;;;2.40;;
75894;SDS011;64573;50.328;15.014;2023-04-24T13:12:53;2.80;;;2.22;;
75894;SDS011;64573;50.328;15.014;2023-04-24T13:15:18;3.55;;;2.20;;
75894;SDS011;64573;50.328;15.014;2023-04-24T13:17:43;3.95;;;2.03;;
75894;SDS011;64573;50.328;15.014;2023-04-24T13:20:09;5.53;;;2.42;;
75894;SDS011;64573;50.328;15.014;2023-04-24T13:22:35;3.17;;;1.90;;
75894;SDS011;64573;50.328;15.014;2023-04-24T13:25:01;2.97;;;2.10;;
75894;SDS011;64573;50.328;15.014;2023-04-24T13:27:27;3.88;;;1.90;;
75894;SDS011;64573;50.328;15.014;2023-04-24T13:29:52;2.10;;;1.90;;
75894;SDS011;64573;50.328;15.014;2023-04-24T13:32:17;4.72;;;1.70;;
75894;SDS011;64573;50.328;15.014;2023-04-24T13:34:43;4.38;;;1.50;;
75894;SDS011;64573;50.328;15.014;2023-04-24T13:37:08;1.23;;;1.10;;
75894;SDS011;64573;50.328;15.014;2023-04-24T13:39:33;2.75;;;1.30;;
75894;SDS011;64573;50.328;15.014;2023-04-24T13:42:00;3.88;;;1.33;;
75894;SDS011;64573;50.328;15.014;2023-04-24T13:44:25;1.95;;;1.30;;
75894;SDS011;64573;50.328;15.014;2023-04-24T13:46:52;1.83;;;1.10;;
75894;SDS011;64573;50.328;15.014;2023-04-24T13:49:19;1.90;;;1.50;;
75894;SDS011;64573;50.328;15.014;2023-04-24T13:51:46;1.95;;;1.00;;
75894;SDS011;64573;50.328;15.014;2023-04-24T13:54:11;2.10;;;1.20;;
75894;SDS011;64573;50.328;15.014;2023-04-24T13:56:38;1.67;;;1.17;;
75894;SDS011;64573;50.328;15.014;2023-04-24T13:59:04;1.70;;;1.00;;
75894;SDS011;64573;50.328;15.014;2023-04-24T14:01:30;2.45;;;1.30;;
75894;SDS011;64573;50.328;15.014;2023-04-24T14:03:55;2.22;;;1.35;;
75894;SDS011;64573;50.328;15.014;2023-04-24T14:06:21;2.40;;;1.50;;
75894;SDS011;64573;50.328;15.014;2023-04-24T14:08:48;4.22;;;1.25;;
75894;SDS011;64573;50.328;15.014;2023-04-24T14:11:14;4.30;;;1.73;;
75894;SDS011;64573;50.328;15.014;2023-04-24T14:13:43;1.58;;;1.00;;
75894;SDS011;64573;50.328;15.014;2023-04-24T14:16:09;4.85;;;1.15;;
75894;SDS011;64573;50.328;15.014;2023-04-24T14:18:35;1.52;;;1.10;;
75894;SDS011;64573;50.328;15.014;2023-04-24T14:21:01;2.00;;;1.10;;
75894;SDS011;64573;50.328;15.014;2023-04-24T14:23:27;2.28;;;1.50;;
75894;SDS011;64573;50.328;15.014;2023-04-24T14:25:52;2.53;;;1.63;;
75894;SDS011;64573;50.328;15.014;2023-04-24T14:28:18;1.63;;;1.17;;
75894;SDS011;64573;50.328;15.014;2023-04-24T14:30:45;1.52;;;1.00;;
75894;SDS011;64573;50.328;15.014;2023-04-24T14:33:11;1.27;;;1.10;;
75894;SDS011;64573;50.328;15.014;2023-04-24T14:35:37;2.50;;;1.10;;
75894;SDS011;64573;50.328;15.014;2023-04-24T14:38:03;1.80;;;0.98;;
75894;SDS011;64573;50.328;15.014;2023-04-24T14:40:28;1.60;;;0.90;;